sensor_id;sensor_type;location;lat;lon;timestamp;pressure;altitude;pressure_sealevel;temperature;humidity
22662;BME280;11497;52.222;21.246;2023-04-06T00:02:03;101001.28;;;1.64;56.24
22662;BME280;11497;52.222;21.246;2023-04-06T00:04:31;100991.09;;;1.78;56.28
22662;BME280;11497;52.222;21.246;2023-04-06T00:06:59;100989.38;;;1.77;56.05
22662;BME280;11497;52.222;21.246;2023-04-06T00:09:27;100991.06;;;1.75;55.84
22662;BME280;11497;52.222;21.246;2023-04-06T00:11:55;100992.81;;;1.76;55.97
22662;BME280;11497;52.222;21.246;2023-04-06T00:14:23;100990.28;;;1.80;56.04
22662;BME280;11497;52.222;21.246;2023-04-06T00:16:50;100985.97;;;1.81;55.94
22662;BME280;11497;52.222;21.246;2023-04-06T00:19:18;100992.03;;;1.83;56.28
22662;BME280;11497;52.222;21.246;2023-04-06T00:21:46;100984.22;;;1.77;56.14
22662;BME280;11497;52.222;21.246;2023-04-06T00:24:14;100984.16;;;1.71;56.31
22662;BME280;11497;52.222;21.246;2023-04-06T00:26:42;100982.66;;;1.89;56.08
22662;BME280;11497;52.222;21.246;2023-04-06T00:29:10;100975.59;;;1.72;56.11
22662;BME280;11497;52.222;21.246;2023-04-06T00:31:38;100965.28;;;1.73;55.98
22662;BME280;11497;52.222;21.246;2023-04-06T00:34:06;100985.94;;;1.78;56.32
22662;BME280;11497;52.222;21.246;2023-04-06T00:36:34;100977.31;;;1.76;56.53
22662;BME280;11497;52.222;21.246;2023-04-06T00:39:02;100974.00;;;1.86;56.00
22662;BME280;11497;52.222;21.246;2023-04-06T00:41:30;100963.53;;;1.74;56.56
22662;BME280;11497;52.222;21.246;2023-04-06T00:43:58;100971.16;;;1.63;57.39
22662;BME280;11497;52.222;21.246;2023-04-06T00:46:26;100965.88;;;1.54;57.36
22662;BME280;11497;52.222;21.246;2023-04-06T00:48:54;100954.72;;;1.53;57.61
22662;BME280;11497;52.222;21.246;2023-04-06T00:51:23;100963.13;;;1.40;58.37
22662;BME280;11497;52.222;21.246;2023-04-06T00:53:51;100959.66;;;1.38;58.80
22662;BME280;11497;52.222;21.246;2023-04-06T00:56:19;100959.63;;;1.35;59.03
22662;BME280;11497;52.222;21.246;2023-04-06T00:58:51;100954.50;;;1.38;59.43
22662;BME280;11497;52.222;21.246;2023-04-06T01:01:19;100954.47;;;1.35;59.41
22662;BME280;11497;52.222;21.246;2023-04-06T01:03:49;100951.81;;;1.29;59.50
22662;BME280;11497;52.222;21.246;2023-04-06T01:06:19;100947.53;;;1.28;59.53
22662;BME280;11497;52.222;21.246;2023-04-06T01:08:56;100950.16;;;1.34;59.33
22662;BME280;11497;52.222;21.246;2023-04-06T01:11:26;100935.44;;;1.25;59.43
22662;BME280;11497;52.222;21.246;2023-04-06T01:13:54;100952.69;;;1.31;59.38
22662;BME280;11497;52.222;21.246;2023-04-06T01:16:37;100954.38;;;1.26;59.84
22662;BME280;11497;52.222;21.246;2023-04-06T01:19:11;100942.38;;;1.31;59.80
22662;BME280;11497;52.222;21.246;2023-04-06T01:21:44;100944.97;;;1.29;60.09
22662;BME280;11497;52.222;21.246;2023-04-06T01:24:15;100939.75;;;1.25;60.22
22662;BME280;11497;52.222;21.246;2023-04-06T01:27:03;100944.84;;;1.20;60.22
22662;BME280;11497;52.222;21.246;2023-04-06T01:29:57;100943.09;;;1.19;60.42
22662;BME280;11497;52.222;21.246;2023-04-06T01:32:44;100936.31;;;1.26;60.48
22662;BME280;11497;52.222;21.246;2023-04-06T01:35:17;100931.13;;;1.24;60.86
22662;BME280;11497;52.222;21.246;2023-04-06T01:37:55;100930.28;;;1.24;60.94
22662;BME280;11497;52.222;21.246;2023-04-06T01:40:29;100917.41;;;1.25;61.34
22662;BME280;11497;52.222;21.246;2023-04-06T01:42:57;100921.66;;;1.22;61.32
22662;BME280;11497;52.222;21.246;2023-04-06T01:45:32;100922.41;;;1.15;61.61
22662;BME280;11497;52.222;21.246;2023-04-06T01:48:10;100922.38;;;1.13;62.04
22662;BME280;11497;52.222;21.246;2023-04-06T01:50:38;100930.00;;;1.06;62.04
22662;BME280;11497;52.222;21.246;2023-04-06T01:53:07;100926.53;;;1.04;62.12
22662;BME280;11497;52.222;21.246;2023-04-06T01:55:37;100920.53;;;1.03;62.16
22662;BME280;11497;52.222;21.246;2023-04-06T01:58:26;100919.84;;;1.15;61.74
22662;BME280;11497;52.222;21.246;2023-04-06T02:00:54;100920.69;;;1.14;62.22
22662;BME280;11497;52.222;21.246;2023-04-06T02:03:24;100916.41;;;1.16;62.36
22662;BME280;11497;52.222;21.246;2023-04-06T02:06:00;100911.22;;;1.13;62.28
22662;BME280;11497;52.222;21.246;2023-04-06T02:08:34;100912.69;;;0.97;62.28
22662;BME280;11497;52.222;21.246;2023-04-06T02:11:01;100918.66;;;0.93;62.35
22662;BME280;11497;52.222;21.246;2023-04-06T02:13:34;100913.31;;;0.78;62.74
22662;BME280;11497;52.222;21.246;2023-04-06T02:16:02;100913.22;;;0.72;62.86
22662;BME280;11497;52.222;21.246;2023-04-06T02:18:31;100907.06;;;0.63;63.47
22662;BME280;11497;52.222;21.246;2023-04-06T02:20:59;100909.44;;;0.51;63.48
22662;BME280;11497;52.222;21.246;2023-04-06T02:23:27;100903.31;;;0.42;64.28
22662;BME280;11497;52.222;21.246;2023-04-06T02:25:57;100903.16;;;0.32;64.70
22662;BME280;11497;52.222;21.246;2023-04-06T02:28:25;100905.00;;;0.40;64.56
22662;BME280;11497;52.222;21.246;2023-04-06T02:30:52;100903.09;;;0.28;64.69
22662;BME280;11497;52.222;21.246;2023-04-06T02:33:25;100895.22;;;0.20;65.01
22662;BME280;11497;52.222;21.246;2023-04-06T02:35:52;100898.63;;;0.19;65.33
22662;BME280;11497;52.222;21.246;2023-04-06T02:38:20;100899.53;;;0.21;65.45
22662;BME280;11497;52.222;21.246;2023-04-06T02:40:48;100897.09;;;0.29;65.52
22662;BME280;11497;52.222;21.246;2023-04-06T02:43:24;100892.06;;;0.37;65.32
22662;BME280;11497;52.222;21.246;2023-04-06T02:46:01;100899.63;;;0.27;65.25
22662;BME280;11497;52.222;21.246;2023-04-06T02:48:32;100897.81;;;0.20;65.73
22662;BME280;11497;52.222;21.246;2023-04-06T02:51:04;100888.06;;;0.04;65.85
22662;BME280;11497;52.222;21.246;2023-04-06T02:53:32;100893.16;;;-0.02;66.92
22662;BME280;11497;52.222;21.246;2023-04-06T02:56:00;100888.56;;;-0.18;67.36
22662;BME280;11497;52.222;21.246;2023-04-06T02:58:38;100894.47;;;-0.22;67.78
22662;BME280;11497;52.222;21.246;2023-04-06T03:01:05;100897.00;;;-0.25;68.40
22662;BME280;11497;52.222;21.246;2023-04-06T03:03:35;100893.53;;;-0.27;68.46
22662;BME280;11497;52.222;21.246;2023-04-06T03:06:07;100889.16;;;-0.31;69.17
22662;BME280;11497;52.222;21.246;2023-04-06T03:08:36;100890.97;;;-0.27;69.22
22662;BME280;11497;52.222;21.246;2023-04-06T03:11:03;100891.78;;;-0.28;69.21
22662;BME280;11497;52.222;21.246;2023-04-06T03:13:38;100890.22;;;-0.20;69.69
22662;BME280;11497;52.222;21.246;2023-04-06T03:16:08;100897.06;;;-0.22;69.97
22662;BME280;11497;52.222;21.246;2023-04-06T03:18:37;100898.78;;;-0.21;70.10
22662;BME280;11497;52.222;21.246;2023-04-06T03:21:05;100896.25;;;-0.20;70.23
22662;BME280;11497;52.222;21.246;2023-04-06T03:23:45;100899.03;;;-0.09;70.53
22662;BME280;11497;52.222;21.246;2023-04-06T03:26:13;100895.72;;;-0.02;70.74
22662;BME280;11497;52.222;21.246;2023-04-06T03:28:42;100898.44;;;0.09;70.26
22662;BME280;11497;52.222;21.246;2023-04-06T03:31:10;100898.44;;;0.09;70.38
22662;BME280;11497;52.222;21.246;2023-04-06T03:33:54;100901.16;;;0.16;70.58
22662;BME280;11497;52.222;21.246;2023-04-06T03:36:26;100898.19;;;0.45;70.21
22662;BME280;11497;52.222;21.246;2023-04-06T03:38:57;100904.06;;;0.36;69.94
22662;BME280;11497;52.222;21.246;2023-04-06T03:41:25;100898.97;;;0.38;69.89
22662;BME280;11497;52.222;21.246;2023-04-06T03:44:27;100899.78;;;0.35;69.88
22662;BME280;11497;52.222;21.246;2023-04-06T03:46:55;100894.84;;;0.50;69.61
22662;BME280;11497;52.222;21.246;2023-04-06T03:49:23;100904.16;;;0.44;69.45
22662;BME280;11497;52.222;21.246;2023-04-06T03:51:53;100901.66;;;0.47;69.53
22662;BME280;11497;52.222;21.246;2023-04-06T03:54:21;100904.25;;;0.48;69.60
22662;BME280;11497;52.222;21.246;2023-04-06T03:56:49;100895.59;;;0.42;69.60
22662;BME280;11497;52.222;21.246;2023-04-06T03:59:18;100893.94;;;0.47;69.84
22662;BME280;11497;52.222;21.246;2023-04-06T04:01:45;100892.06;;;0.37;69.71
22662;BME280;11497;52.222;21.246;2023-04-06T04:04:14;100893.75;;;0.35;70.22
22662;BME280;11497;52.222;21.246;2023-04-06T04:06:41;100888.63;;;0.36;70.13
22662;BME280;11497;52.222;21.246;2023-04-06T04:09:09;100888.63;;;0.36;70.16
22662;BME280;11497;52.222;21.246;2023-04-06T04:11:37;100885.25;;;0.39;70.44
22662;BME280;11497;52.222;21.246;2023-04-06T04:14:05;100890.41;;;0.40;70.86
22662;BME280;11497;52.222;21.246;2023-04-06T04:16:33;100884.44;;;0.43;70.57
22662;BME280;11497;52.222;21.246;2023-04-06T04:19:01;100882.00;;;0.52;70.69
22662;BME280;11497;52.222;21.246;2023-04-06T04:21:31;100881.25;;;0.60;70.28
22662;BME280;11497;52.222;21.246;2023-04-06T04:24:03;100883.16;;;0.72;70.49
22662;BME280;11497;52.222;21.246;2023-04-06T04:26:34;100888.22;;;0.66;69.93
22662;BME280;11497;52.222;21.246;2023-04-06T04:29:02;100889.94;;;0.67;69.59
22662;BME280;11497;52.222;21.246;2023-04-06T04:31:30;100885.00;;;0.79;69.69
22662;BME280;11497;52.222;21.246;2023-04-06T04:34:02;100878.28;;;0.93;69.33
22662;BME280;11497;52.222;21.246;2023-04-06T04:36:33;100873.38;;;1.12;68.79
22662;BME280;11497;52.222;21.246;2023-04-06T04:39:05;100871.63;;;1.09;68.65
22662;BME280;11497;52.222;21.246;2023-04-06T04:41:38;100868.31;;;1.18;68.21
22662;BME280;11497;52.222;21.246;2023-04-06T04:44:09;100870.16;;;1.28;67.77
22662;BME280;11497;52.222;21.246;2023-04-06T04:46:37;100865.16;;;1.43;67.16
22662;BME280;11497;52.222;21.246;2023-04-06T04:49:07;100870.28;;;1.42;66.64
22662;BME280;11497;52.222;21.246;2023-04-06T04:51:36;100860.31;;;1.71;66.29
22662;BME280;11497;52.222;21.246;2023-04-06T04:54:11;100864.56;;;1.67;65.40
22662;BME280;11497;52.222;21.246;2023-04-06T04:56:40;100863.97;;;1.94;64.71
22662;BME280;11497;52.222;21.246;2023-04-06T04:59:25;100867.31;;;1.85;64.47
22662;BME280;11497;52.222;21.246;2023-04-06T05:01:59;100863.03;;;1.87;64.00
22662;BME280;11497;52.222;21.246;2023-04-06T05:04:36;100871.72;;;1.97;63.73
22662;BME280;11497;52.222;21.246;2023-04-06T05:07:08;100871.91;;;2.14;63.07
22662;BME280;11497;52.222;21.246;2023-04-06T05:09:39;100881.53;;;2.34;62.91
22662;BME280;11497;52.222;21.246;2023-04-06T05:12:08;100867.75;;;2.36;61.96
22662;BME280;11497;52.222;21.246;2023-04-06T05:14:45;100871.22;;;2.38;61.72
22662;BME280;11497;52.222;21.246;2023-04-06T05:17:16;100869.56;;;2.47;61.54
22662;BME280;11497;52.222;21.246;2023-04-06T05:19:44;100878.25;;;2.57;61.47
22662;BME280;11497;52.222;21.246;2023-04-06T05:22:16;100866.31;;;2.80;60.73
22662;BME280;11497;52.222;21.246;2023-04-06T05:24:50;100864.69;;;2.91;60.67
22662;BME280;11497;52.222;21.246;2023-04-06T05:27:18;100864.63;;;2.85;60.04
22662;BME280;11497;52.222;21.246;2023-04-06T05:29:47;100864.72;;;3.07;59.02
22662;BME280;11497;52.222;21.246;2023-04-06T05:32:16;100854.41;;;3.10;59.16
22662;BME280;11497;52.222;21.246;2023-04-06T05:34:51;100857.00;;;3.11;58.82
22662;BME280;11497;52.222;21.246;2023-04-06T05:37:19;100860.50;;;3.22;58.62
22662;BME280;11497;52.222;21.246;2023-04-06T05:39:47;100854.53;;;3.37;57.65
22662;BME280;11497;52.222;21.246;2023-04-06T05:42:15;100863.03;;;3.15;57.54
22662;BME280;11497;52.222;21.246;2023-04-06T05:44:52;100859.63;;;3.19;57.60
22662;BME280;11497;52.222;21.246;2023-04-06T05:47:20;100846.72;;;3.25;57.74
22662;BME280;11497;52.222;21.246;2023-04-06T05:49:54;100849.38;;;3.40;57.35
22662;BME280;11497;52.222;21.246;2023-04-06T05:52:32;100843.34;;;3.59;56.97
22662;BME280;11497;52.222;21.246;2023-04-06T05:55:00;100851.09;;;3.53;56.93
22662;BME280;11497;52.222;21.246;2023-04-06T05:57:30;100852.88;;;3.65;56.59
22662;BME280;11497;52.222;21.246;2023-04-06T05:59:58;100853.66;;;3.37;56.53
22662;BME280;11497;52.222;21.246;2023-04-06T06:02:38;100851.09;;;3.44;57.13
22662;BME280;11497;52.222;21.246;2023-04-06T06:05:10;100850.25;;;3.60;56.90
22662;BME280;11497;52.222;21.246;2023-04-06T06:07:41;100849.44;;;3.71;56.88
22662;BME280;11497;52.222;21.246;2023-04-06T06:10:10;100846.84;;;3.72;56.69
22662;BME280;11497;52.222;21.246;2023-04-06T06:12:39;100846.00;;;3.81;56.68
22662;BME280;11497;52.222;21.246;2023-04-06T06:15:08;100841.69;;;3.86;56.38
22662;BME280;11497;52.222;21.246;2023-04-06T06:17:40;100834.78;;;4.11;56.01
22662;BME280;11497;52.222;21.246;2023-04-06T06:20:09;100839.09;;;4.13;56.67
22662;BME280;11497;52.222;21.246;2023-04-06T06:22:37;100839.97;;;4.29;56.33
22662;BME280;11497;52.222;21.246;2023-04-06T06:25:07;100840.84;;;4.17;56.07
22662;BME280;11497;52.222;21.246;2023-04-06T06:27:35;100842.56;;;4.15;55.57
22662;BME280;11497;52.222;21.246;2023-04-06T06:30:06;100843.44;;;3.90;55.71
22662;BME280;11497;52.222;21.246;2023-04-06T06:32:35;100839.94;;;3.66;56.16
22662;BME280;11497;52.222;21.246;2023-04-06T06:35:04;100838.22;;;3.94;56.57
22662;BME280;11497;52.222;21.246;2023-04-06T06:37:32;100827.88;;;3.88;56.64
22662;BME280;11497;52.222;21.246;2023-04-06T06:40:02;100829.59;;;4.03;56.77
22662;BME280;11497;52.222;21.246;2023-04-06T06:42:32;100835.63;;;4.35;56.55
22662;BME280;11497;52.222;21.246;2023-04-06T06:45:10;100825.25;;;4.57;56.00
22662;BME280;11497;52.222;21.246;2023-04-06T06:47:40;100829.53;;;4.67;55.70
22662;BME280;11497;52.222;21.246;2023-04-06T06:50:11;100831.19;;;4.89;55.83
22662;BME280;11497;52.222;21.246;2023-04-06T06:52:40;100825.25;;;4.37;55.91
22662;BME280;11497;52.222;21.246;2023-04-06T06:55:10;100824.44;;;4.27;56.09
22662;BME280;11497;52.222;21.246;2023-04-06T06:57:38;100836.50;;;4.03;56.35
22662;BME280;11497;52.222;21.246;2023-04-06T07:00:08;100836.50;;;3.72;56.88
22662;BME280;11497;52.222;21.246;2023-04-06T07:02:41;100826.97;;;3.57;58.08
22662;BME280;11497;52.222;21.246;2023-04-06T07:05:09;100821.78;;;3.60;58.19
22662;BME280;11497;52.222;21.246;2023-04-06T07:07:55;100821.78;;;3.60;58.55
22662;BME280;11497;52.222;21.246;2023-04-06T07:10:24;100825.25;;;3.65;58.86
22662;BME280;11497;52.222;21.246;2023-04-06T07:12:51;100826.97;;;3.63;58.75
22662;BME280;11497;52.222;21.246;2023-04-06T07:15:19;100820.91;;;3.49;58.51
22662;BME280;11497;52.222;21.246;2023-04-06T07:17:47;100825.19;;;3.35;59.05
22662;BME280;11497;52.222;21.246;2023-04-06T07:20:15;100823.50;;;3.52;59.58
22662;BME280;11497;52.222;21.246;2023-04-06T07:22:44;100821.84;;;3.79;59.26
22662;BME280;11497;52.222;21.246;2023-04-06T07:25:16;100821.84;;;4.12;59.11
22662;BME280;11497;52.222;21.246;2023-04-06T07:27:43;100826.97;;;4.58;58.66
22662;BME280;11497;52.222;21.246;2023-04-06T07:30:12;100819.16;;;4.70;57.88
22662;BME280;11497;52.222;21.246;2023-04-06T07:32:40;100814.75;;;4.90;57.42
22662;BME280;11497;52.222;21.246;2023-04-06T07:35:09;100819.94;;;4.96;57.15
22662;BME280;11497;52.222;21.246;2023-04-06T07:37:36;100819.78;;;5.27;56.70
22662;BME280;11497;52.222;21.246;2023-04-06T07:40:05;100819.88;;;5.18;56.46
22662;BME280;11497;52.222;21.246;2023-04-06T07:42:34;100811.28;;;5.00;56.22
22662;BME280;11497;52.222;21.246;2023-04-06T07:45:05;100812.94;;;5.17;56.42
22662;BME280;11497;52.222;21.246;2023-04-06T07:47:34;100813.72;;;5.28;56.87
22662;BME280;11497;52.222;21.246;2023-04-06T07:50:02;100818.09;;;5.23;57.38
22662;BME280;11497;52.222;21.246;2023-04-06T07:52:31;100812.28;;;4.58;58.19
22662;BME280;11497;52.222;21.246;2023-04-06T07:55:00;100811.47;;;4.23;60.13
22662;BME280;11497;52.222;21.246;2023-04-06T07:57:28;100817.53;;;4.32;61.99
22662;BME280;11497;52.222;21.246;2023-04-06T07:59:56;100805.41;;;4.36;62.27
22662;BME280;11497;52.222;21.246;2023-04-06T08:02:24;100807.97;;;4.44;62.57
22662;BME280;11497;52.222;21.246;2023-04-06T08:04:52;100801.00;;;4.76;62.27
22662;BME280;11497;52.222;21.246;2023-04-06T08:07:21;100807.00;;;4.84;62.18
22662;BME280;11497;52.222;21.246;2023-04-06T08:09:49;100803.56;;;4.82;62.21
22662;BME280;11497;52.222;21.246;2023-04-06T08:12:17;100806.97;;;4.92;61.51
22662;BME280;11497;52.222;21.246;2023-04-06T08:14:45;100800.91;;;4.97;61.97
22662;BME280;11497;52.222;21.246;2023-04-06T08:17:13;100804.50;;;4.60;61.18
22662;BME280;11497;52.222;21.246;2023-04-06T08:19:43;100797.66;;;4.30;60.83
22662;BME280;11497;52.222;21.246;2023-04-06T08:22:12;100807.16;;;4.20;61.17
22662;BME280;11497;52.222;21.246;2023-04-06T08:24:40;100797.66;;;3.98;61.60
22662;BME280;11497;52.222;21.246;2023-04-06T08:27:08;100801.09;;;3.97;62.25
22662;BME280;11497;52.222;21.246;2023-04-06T08:29:37;100807.16;;;3.94;62.13
22662;BME280;11497;52.222;21.246;2023-04-06T08:32:05;100796.78;;;3.93;63.07
22662;BME280;11497;52.222;21.246;2023-04-06T08:34:34;100798.53;;;4.15;63.09
22662;BME280;11497;52.222;21.246;2023-04-06T08:37:02;100792.47;;;4.06;62.59
22662;BME280;11497;52.222;21.246;2023-04-06T08:39:30;100796.81;;;4.13;63.71
22662;BME280;11497;52.222;21.246;2023-04-06T08:41:58;100789.03;;;4.05;63.80
22662;BME280;11497;52.222;21.246;2023-04-06T08:44:28;100785.56;;;4.30;64.89
22662;BME280;11497;52.222;21.246;2023-04-06T08:46:56;100789.03;;;4.11;64.86
22662;BME280;11497;52.222;21.246;2023-04-06T08:49:25;100790.75;;;4.18;66.12
22662;BME280;11497;52.222;21.246;2023-04-06T08:51:53;100790.72;;;3.57;67.18
22662;BME280;11497;52.222;21.246;2023-04-06T08:54:22;100788.97;;;3.38;68.20
22662;BME280;11497;52.222;21.246;2023-04-06T08:56:49;100791.59;;;3.41;69.60
22662;BME280;11497;52.222;21.246;2023-04-06T08:59:18;100782.97;;;3.44;70.49
22662;BME280;11497;52.222;21.246;2023-04-06T09:01:46;100778.63;;;3.53;70.84
22662;BME280;11497;52.222;21.246;2023-04-06T09:04:15;100763.13;;;3.72;70.39
22662;BME280;11497;52.222;21.246;2023-04-06T09:06:44;100761.41;;;3.78;70.85
22662;BME280;11497;52.222;21.246;2023-04-06T09:09:12;100756.25;;;3.86;70.33
22662;BME280;11497;52.222;21.246;2023-04-06T09:11:48;100754.50;;;3.73;69.89
22662;BME280;11497;52.222;21.246;2023-04-06T09:14:16;100760.53;;;3.53;71.14
22662;BME280;11497;52.222;21.246;2023-04-06T09:16:45;100748.44;;;3.48;72.04
22662;BME280;11497;52.222;21.246;2023-04-06T09:19:13;100761.41;;;3.64;73.46
22662;BME280;11497;52.222;21.246;2023-04-06T09:21:41;100740.72;;;3.46;72.50
22662;BME280;11497;52.222;21.246;2023-04-06T09:24:09;100754.50;;;3.39;74.04
22662;BME280;11497;52.222;21.246;2023-04-06T09:26:47;100752.75;;;3.35;75.15
22662;BME280;11497;52.222;21.246;2023-04-06T09:29:25;100751.88;;;3.48;76.33
22662;BME280;11497;52.222;21.246;2023-04-06T09:32:15;100740.69;;;3.49;76.58
22662;BME280;11497;52.222;21.246;2023-04-06T09:34:44;100742.44;;;3.65;77.72
22662;BME280;11497;52.222;21.246;2023-04-06T09:37:18;100738.13;;;3.66;77.46
22662;BME280;11497;52.222;21.246;2023-04-06T09:39:47;100737.25;;;3.40;77.41
22662;BME280;11497;52.222;21.246;2023-04-06T09:42:25;100730.31;;;3.31;79.08
22662;BME280;11497;52.222;21.246;2023-04-06T09:44:54;100728.59;;;3.30;79.48
22662;BME280;11497;52.222;21.246;2023-04-06T09:47:22;100721.72;;;3.44;80.51
22662;BME280;11497;52.222;21.246;2023-04-06T09:49:56;100724.31;;;3.59;80.85
22662;BME280;11497;52.222;21.246;2023-04-06T09:52:29;100715.66;;;3.48;79.53
22662;BME280;11497;52.222;21.246;2023-04-06T09:55:04;100713.06;;;3.51;79.54
22662;BME280;11497;52.222;21.246;2023-04-06T09:57:44;100710.50;;;3.56;79.91
22662;BME280;11497;52.222;21.246;2023-04-06T10:00:15;100714.81;;;3.67;79.29
22662;BME280;11497;52.222;21.246;2023-04-06T10:03:04;100713.06;;;3.51;79.41
22662;BME280;11497;52.222;21.246;2023-04-06T10:05:52;100707.91;;;3.51;79.34
22662;BME280;11497;52.222;21.246;2023-04-06T10:08:25;100709.66;;;3.40;79.86
22662;BME280;11497;52.222;21.246;2023-04-06T10:11:00;100710.53;;;3.45;79.86
22662;BME280;11497;52.222;21.246;2023-04-06T10:13:29;100709.63;;;3.31;79.82
22662;BME280;11497;52.222;21.246;2023-04-06T10:15:58;100713.94;;;3.29;80.02
22662;BME280;11497;52.222;21.246;2023-04-06T10:18:28;100709.66;;;3.40;80.32
22662;BME280;11497;52.222;21.246;2023-04-06T10:21:09;100704.47;;;3.55;79.88
22662;BME280;11497;52.222;21.246;2023-04-06T10:23:46;100714.81;;;3.51;79.88
22662;BME280;11497;52.222;21.246;2023-04-06T10:26:19;100706.19;;;3.44;80.48
22662;BME280;11497;52.222;21.246;2023-04-06T10:28:50;100700.16;;;3.54;79.57
22662;BME280;11497;52.222;21.246;2023-04-06T10:31:26;100696.72;;;3.46;80.04
22662;BME280;11497;52.222;21.246;2023-04-06T10:34:00;100698.44;;;3.46;79.76
22662;BME280;11497;52.222;21.246;2023-04-06T10:36:33;100696.69;;;3.34;79.64
22662;BME280;11497;52.222;21.246;2023-04-06T10:39:05;100694.13;;;3.37;80.13
22662;BME280;11497;52.222;21.246;2023-04-06T10:41:36;100694.97;;;3.22;79.84
22662;BME280;11497;52.222;21.246;2023-04-06T10:44:04;100691.53;;;3.45;79.78
22662;BME280;11497;52.222;21.246;2023-04-06T10:46:33;100684.63;;;3.57;79.71
22662;BME280;11497;52.222;21.246;2023-04-06T10:49:12;100684.63;;;3.66;79.06
22662;BME280;11497;52.222;21.246;2023-04-06T10:51:40;100686.34;;;3.49;78.96
22662;BME280;11497;52.222;21.246;2023-04-06T10:54:09;100680.31;;;3.50;79.41
22662;BME280;11497;52.222;21.246;2023-04-06T10:56:39;100682.03;;;3.48;79.68
22662;BME280;11497;52.222;21.246;2023-04-06T10:59:07;100678.59;;;3.28;79.88
22662;BME280;11497;52.222;21.246;2023-04-06T11:01:35;100674.28;;;3.41;80.18
22662;BME280;11497;52.222;21.246;2023-04-06T11:04:03;100672.53;;;3.59;79.41
22662;BME280;11497;52.222;21.246;2023-04-06T11:06:31;100676.84;;;3.59;78.94
22662;BME280;11497;52.222;21.246;2023-04-06T11:08:59;100673.41;;;3.69;79.29
22662;BME280;11497;52.222;21.246;2023-04-06T11:11:28;100669.03;;;4.01;79.14
22662;BME280;11497;52.222;21.246;2023-04-06T11:13:58;100666.50;;;3.65;77.69
22662;BME280;11497;52.222;21.246;2023-04-06T11:16:30;100664.78;;;3.81;77.96
22662;BME280;11497;52.222;21.246;2023-04-06T11:19:00;100662.97;;;4.06;77.65
22662;BME280;11497;52.222;21.246;2023-04-06T11:21:42;100652.56;;;4.22;77.03
22662;BME280;11497;52.222;21.246;2023-04-06T11:24:18;100662.94;;;4.25;76.41
22662;BME280;11497;52.222;21.246;2023-04-06T11:29:23;100663.91;;;3.83;75.37
22662;BME280;11497;52.222;21.246;2023-04-06T11:32:02;100652.63;;;3.95;76.35
22662;BME280;11497;52.222;21.246;2023-04-06T11:34:36;100640.56;;;3.91;76.03
22662;BME280;11497;52.222;21.246;2023-04-06T11:37:09;100647.47;;;3.92;76.83
22662;BME280;11497;52.222;21.246;2023-04-06T11:42:07;100638.81;;;4.08;75.89
22662;BME280;11497;52.222;21.246;2023-04-06T11:44:58;100631.03;;;4.08;75.49
22662;BME280;11497;52.222;21.246;2023-04-06T11:47:34;100628.41;;;4.19;74.97
22662;BME280;11497;52.222;21.246;2023-04-06T11:50:13;100628.38;;;4.29;74.30
22662;BME280;11497;52.222;21.246;2023-04-06T11:52:42;100617.97;;;4.35;74.31
22662;BME280;11497;52.222;21.246;2023-04-06T11:55:12;100611.09;;;4.28;74.17
22662;BME280;11497;52.222;21.246;2023-04-06T11:57:42;100618.00;;;4.32;73.68
22662;BME280;11497;52.222;21.246;2023-04-06T12:00:11;100598.25;;;4.03;73.50
22662;BME280;11497;52.222;21.246;2023-04-06T12:02:44;100599.19;;;3.76;74.02
22662;BME280;11497;52.222;21.246;2023-04-06T12:05:13;100593.94;;;3.97;74.27
22662;BME280;11497;52.222;21.246;2023-04-06T12:07:41;100599.06;;;4.11;74.07
22662;BME280;11497;52.222;21.246;2023-04-06T12:10:10;100590.47;;;4.04;74.10
22662;BME280;11497;52.222;21.246;2023-04-06T12:12:38;100594.69;;;4.28;73.81
22662;BME280;11497;52.222;21.246;2023-04-06T12:15:06;100602.50;;;4.22;73.41
22662;BME280;11497;52.222;21.246;2023-04-06T12:17:34;100605.94;;;4.22;73.76
22662;BME280;11497;52.222;21.246;2023-04-06T12:20:03;100604.28;;;4.03;73.41
22662;BME280;11497;52.222;21.246;2023-04-06T12:22:40;100597.38;;;3.99;73.42
22662;BME280;11497;52.222;21.246;2023-04-06T12:25:08;100600.75;;;4.22;73.87
22662;BME280;11497;52.222;21.246;2023-04-06T12:27:37;100599.09;;;4.06;73.84
22662;BME280;11497;52.222;21.246;2023-04-06T12:30:05;100592.25;;;3.90;74.03
22662;BME280;11497;52.222;21.246;2023-04-06T12:32:33;100590.47;;;3.98;74.47
22662;BME280;11497;52.222;21.246;2023-04-06T12:35:01;100590.44;;;4.07;74.78
22662;BME280;11497;52.222;21.246;2023-04-06T12:37:29;100597.31;;;4.17;75.26
22662;BME280;11497;52.222;21.246;2023-04-06T12:39:57;100597.38;;;4.05;74.72
22662;BME280;11497;52.222;21.246;2023-04-06T12:42:25;100598.22;;;4.06;74.98
22662;BME280;11497;52.222;21.246;2023-04-06T12:44:53;100593.00;;;4.19;75.21
22662;BME280;11497;52.222;21.246;2023-04-06T12:47:21;100600.78;;;4.19;74.88
22662;BME280;11497;52.222;21.246;2023-04-06T12:49:50;100593.88;;;4.17;75.39
22662;BME280;11497;52.222;21.246;2023-04-06T12:52:18;100592.16;;;4.17;75.69
22662;BME280;11497;52.222;21.246;2023-04-06T12:54:47;100583.50;;;4.21;75.44
22662;BME280;11497;52.222;21.246;2023-04-06T12:57:17;100580.09;;;4.03;75.76
22662;BME280;11497;52.222;21.246;2023-04-06T12:59:44;100584.44;;;3.97;76.35
22662;BME280;11497;52.222;21.246;2023-04-06T13:02:13;100573.28;;;3.85;76.80
22662;BME280;11497;52.222;21.246;2023-04-06T13:04:41;100580.13;;;3.95;77.84
22662;BME280;11497;52.222;21.246;2023-04-06T13:07:09;100563.78;;;3.88;78.86
22662;BME280;11497;52.222;21.246;2023-04-06T13:09:37;100558.59;;;3.87;79.82
22662;BME280;11497;52.222;21.246;2023-04-06T13:12:05;100563.75;;;3.91;80.94
22662;BME280;11497;52.222;21.246;2023-04-06T13:14:33;100564.66;;;3.78;81.16